Blue Grass, VA (24413)

6:09 PM EST on December 28, 2014 (GMT -0500)
Snowy Mountain Rd. | Change Station
CLOSE
Current Station
Personal Weather Station
Location: Circleville, WV
Elevation: 2900 ft
Nearby Weather Stations

Elev 2900 ft 38.54 °N, 79.51 °W | Updated 5 minutes ago

Overcast
Overcast
44.4 °F
Feels Like 42 °F
N
4.7
Wind Variable Wind from NNW

Today
High -- | Low -- °F
--% Chance of Precip.
Yesterday
High -- | Low -- °F
Precip. -- in
7:35 AM 5:05 PM
First Quarter, 52% visible
Pressure 30.09 in
Visibility 10.0 miles
Clouds Scattered Clouds 700 ft
Overcast 1700 ft
Windchill 42 °F
Dew Point 40 °F
Humidity 85%
Rainfall 0.00 in
Snow Depth Not available.
UV 0 out of 12
Pollen .10 out of 12
Air Quality Not available.
Flu Activity Not available.
METAR KEKN 282251Z AUTO 00000KT 10SM SCT007 OVC017 05/05 A3005 RMK AO2 RAE27 SLP187 P0000 T00500050 TSNO

More Conditions Fewer Conditions

Pressure 30.09 in
Visibility 10.0 miles
Clouds Scattered Clouds 700 ft
Overcast 1700 ft
Windchill 42 °F
Dew Point 40 °F
Humidity 85%
Rainfall 0.00 in
Snow Depth Not available.
UV 0 out of 12
Pollen .10 out of 12
Air Quality Not available.
Flu Activity Not available.
METAR KEKN 282251Z AUTO 00000KT 10SM SCT007 OVC017 05/05 A3005 RMK AO2 RAE27 SLP187 P0000 T00500050 TSNO

More Conditions Fewer Conditions

10-Day Weather Forecast

Almanac

Astronomy

Dec. 28, 2014 Rise Set
Actual Time
Civil Twilight
Nautical Twilight
Astronomical Twilight
Moon
Length of Visible Light
Length of Day
Tomorrow will be .
, % of the Moon is Illuminated

Today's Extremes

State Highs State Lows

Community

WunderPhotos

Upload Photos

1,781,455 photos uploaded!

WunderBlogs® & News

Nearby

Air Quality

  Air Quality AQ Index Pollutant
Not available.

Snow Depth

Station Depth Elevation

Earthquake Activity

City Distance Mag. Time & Date
Minimum magnitude displayed is 2.5.

Coastal Water Temperatures

Place Temperature

Nearby Weather Stations